sensor_id;sensor_type;location;lat;lon;timestamp;P1;durP1;ratioP1;P2;durP2;ratioP2
36291;SDS011;22327;51.208;6.418;2022-08-19T00:01:16;17.17;;;14.68;;
36291;SDS011;22327;51.208;6.418;2022-08-19T00:03:42;18.20;;;16.40;;
36291;SDS011;22327;51.208;6.418;2022-08-19T00:06:07;16.65;;;15.05;;
36291;SDS011;22327;51.208;6.418;2022-08-19T00:08:34;18.63;;;16.83;;
36291;SDS011;22327;51.208;6.418;2022-08-19T00:10:59;18.58;;;16.77;;
36291;SDS011;22327;51.208;6.418;2022-08-19T00:13:25;16.50;;;14.82;;
36291;SDS011;22327;51.208;6.418;2022-08-19T00:15:51;20.02;;;16.08;;
36291;SDS011;22327;51.208;6.418;2022-08-19T00:18:17;18.25;;;16.35;;
36291;SDS011;22327;51.208;6.418;2022-08-19T00:20:42;19.98;;;17.65;;
36291;SDS011;22327;51.208;6.418;2022-08-19T00:23:08;23.75;;;18.70;;
36291;SDS011;22327;51.208;6.418;2022-08-19T00:25:34;20.75;;;17.40;;
36291;SDS011;22327;51.208;6.418;2022-08-19T00:28:00;19.48;;;17.48;;
36291;SDS011;22327;51.208;6.418;2022-08-19T00:30:26;20.13;;;17.77;;
36291;SDS011;22327;51.208;6.418;2022-08-19T00:32:54;19.33;;;16.83;;
36291;SDS011;22327;51.208;6.418;2022-08-19T00:35:20;19.65;;;17.65;;
36291;SDS011;22327;51.208;6.418;2022-08-19T00:37:47;22.17;;;19.77;;
36291;SDS011;22327;51.208;6.418;2022-08-19T00:40:14;20.45;;;18.02;;
36291;SDS011;22327;51.208;6.418;2022-08-19T00:42:40;21.60;;;19.40;;
36291;SDS011;22327;51.208;6.418;2022-08-19T00:45:11;20.25;;;17.95;;
36291;SDS011;22327;51.208;6.418;2022-08-19T00:50:15;22.50;;;19.35;;
36291;SDS011;22327;51.208;6.418;2022-08-19T00:52:44;22.02;;;19.83;;
36291;SDS011;22327;51.208;6.418;2022-08-19T00:55:14;23.05;;;20.58;;
36291;SDS011;22327;51.208;6.418;2022-08-19T00:57:44;20.95;;;18.85;;
36291;SDS011;22327;51.208;6.418;2022-08-19T01:00:14;23.55;;;19.75;;
36291;SDS011;22327;51.208;6.418;2022-08-19T01:02:42;22.42;;;20.20;;
36291;SDS011;22327;51.208;6.418;2022-08-19T01:05:08;21.05;;;18.75;;
36291;SDS011;22327;51.208;6.418;2022-08-19T01:07:37;21.58;;;19.27;;
36291;SDS011;22327;51.208;6.418;2022-08-19T01:10:05;23.60;;;20.58;;
36291;SDS011;22327;51.208;6.418;2022-08-19T01:12:33;21.42;;;19.02;;
36291;SDS011;22327;51.208;6.418;2022-08-19T01:14:59;21.08;;;18.70;;
36291;SDS011;22327;51.208;6.418;2022-08-19T01:17:25;20.73;;;18.50;;
36291;SDS011;22327;51.208;6.418;2022-08-19T01:19:52;22.77;;;20.38;;
36291;SDS011;22327;51.208;6.418;2022-08-19T01:24:52;22.25;;;19.95;;
36291;SDS011;22327;51.208;6.418;2022-08-19T01:27:18;20.92;;;18.83;;
36291;SDS011;22327;51.208;6.418;2022-08-19T01:29:44;21.65;;;18.00;;
36291;SDS011;22327;51.208;6.418;2022-08-19T01:32:11;20.67;;;18.30;;
36291;SDS011;22327;51.208;6.418;2022-08-19T01:34:38;22.35;;;19.65;;
36291;SDS011;22327;51.208;6.418;2022-08-19T01:37:08;20.73;;;18.63;;
36291;SDS011;22327;51.208;6.418;2022-08-19T01:39:36;20.00;;;18.00;;
36291;SDS011;22327;51.208;6.418;2022-08-19T01:42:04;18.55;;;16.65;;
36291;SDS011;22327;51.208;6.418;2022-08-19T01:44:32;19.80;;;17.67;;
36291;SDS011;22327;51.208;6.418;2022-08-19T01:46:58;15.90;;;14.30;;
36291;SDS011;22327;51.208;6.418;2022-08-19T01:49:24;22.77;;;19.83;;
36291;SDS011;22327;51.208;6.418;2022-08-19T01:51:52;20.98;;;18.13;;
36291;SDS011;22327;51.208;6.418;2022-08-19T01:54:20;23.38;;;20.58;;
36291;SDS011;22327;51.208;6.418;2022-08-19T01:56:47;24.48;;;21.05;;
36291;SDS011;22327;51.208;6.418;2022-08-19T01:59:16;22.75;;;20.35;;
36291;SDS011;22327;51.208;6.418;2022-08-19T02:01:44;20.77;;;18.60;;
36291;SDS011;22327;51.208;6.418;2022-08-19T02:04:10;18.70;;;16.75;;
36291;SDS011;22327;51.208;6.418;2022-08-19T02:06:36;18.80;;;16.48;;
36291;SDS011;22327;51.208;6.418;2022-08-19T02:09:03;19.02;;;17.02;;
36291;SDS011;22327;51.208;6.418;2022-08-19T02:11:31;20.23;;;17.58;;
36291;SDS011;22327;51.208;6.418;2022-08-19T02:13:59;19.98;;;17.85;;
36291;SDS011;22327;51.208;6.418;2022-08-19T02:16:27;18.83;;;17.00;;
36291;SDS011;22327;51.208;6.418;2022-08-19T02:18:53;20.20;;;18.20;;
36291;SDS011;22327;51.208;6.418;2022-08-19T02:21:20;19.63;;;17.65;;
36291;SDS011;22327;51.208;6.418;2022-08-19T02:23:47;19.60;;;17.50;;
36291;SDS011;22327;51.208;6.418;2022-08-19T02:26:14;17.52;;;15.75;;
36291;SDS011;22327;51.208;6.418;2022-08-19T02:28:40;19.65;;;17.67;;
36291;SDS011;22327;51.208;6.418;2022-08-19T02:31:17;18.13;;;16.35;;
36291;SDS011;22327;51.208;6.418;2022-08-19T02:33:45;21.95;;;19.65;;
36291;SDS011;22327;51.208;6.418;2022-08-19T02:36:11;22.38;;;19.92;;
36291;SDS011;22327;51.208;6.418;2022-08-19T02:38:39;21.50;;;19.30;;
36291;SDS011;22327;51.208;6.418;2022-08-19T02:41:07;21.77;;;19.55;;
36291;SDS011;22327;51.208;6.418;2022-08-19T02:46:15;24.23;;;21.00;;
36291;SDS011;22327;51.208;6.418;2022-08-19T02:48:46;22.23;;;20.05;;
36291;SDS011;22327;51.208;6.418;2022-08-19T02:51:17;23.70;;;21.17;;
36291;SDS011;22327;51.208;6.418;2022-08-19T02:53:44;25.33;;;21.55;;
36291;SDS011;22327;51.208;6.418;2022-08-19T02:56:10;24.02;;;21.10;;
36291;SDS011;22327;51.208;6.418;2022-08-19T02:58:35;25.15;;;21.40;;
36291;SDS011;22327;51.208;6.418;2022-08-19T03:01:01;25.83;;;23.23;;
36291;SDS011;22327;51.208;6.418;2022-08-19T03:03:27;28.40;;;22.95;;
36291;SDS011;22327;51.208;6.418;2022-08-19T03:06:02;26.15;;;22.23;;
36291;SDS011;22327;51.208;6.418;2022-08-19T03:08:32;26.48;;;23.60;;
36291;SDS011;22327;51.208;6.418;2022-08-19T03:10:57;25.45;;;22.45;;
36291;SDS011;22327;51.208;6.418;2022-08-19T03:13:23;25.83;;;23.17;;
36291;SDS011;22327;51.208;6.418;2022-08-19T03:15:48;24.15;;;21.38;;
36291;SDS011;22327;51.208;6.418;2022-08-19T03:18:14;26.92;;;24.02;;
36291;SDS011;22327;51.208;6.418;2022-08-19T03:20:42;32.75;;;26.02;;
36291;SDS011;22327;51.208;6.418;2022-08-19T03:23:10;31.10;;;26.63;;
36291;SDS011;22327;51.208;6.418;2022-08-19T03:25:41;31.13;;;27.02;;
36291;SDS011;22327;51.208;6.418;2022-08-19T03:28:09;29.92;;;26.73;;
36291;SDS011;22327;51.208;6.418;2022-08-19T03:30:39;30.42;;;25.25;;
36291;SDS011;22327;51.208;6.418;2022-08-19T03:33:06;27.90;;;24.65;;
36291;SDS011;22327;51.208;6.418;2022-08-19T03:35:32;28.95;;;25.85;;
36291;SDS011;22327;51.208;6.418;2022-08-19T03:37:58;29.65;;;26.08;;
36291;SDS011;22327;51.208;6.418;2022-08-19T03:40:24;29.50;;;26.42;;
36291;SDS011;22327;51.208;6.418;2022-08-19T03:42:50;30.92;;;27.58;;
36291;SDS011;22327;51.208;6.418;2022-08-19T03:45:16;26.00;;;23.02;;
36291;SDS011;22327;51.208;6.418;2022-08-19T03:47:41;34.72;;;27.63;;
36291;SDS011;22327;51.208;6.418;2022-08-19T03:50:07;30.10;;;26.85;;
36291;SDS011;22327;51.208;6.418;2022-08-19T03:52:34;34.05;;;28.17;;
36291;SDS011;22327;51.208;6.418;2022-08-19T03:55:00;31.02;;;27.35;;
36291;SDS011;22327;51.208;6.418;2022-08-19T03:57:27;35.53;;;28.50;;
36291;SDS011;22327;51.208;6.418;2022-08-19T03:59:52;29.98;;;26.25;;
36291;SDS011;22327;51.208;6.418;2022-08-19T04:02:18;31.85;;;26.67;;
36291;SDS011;22327;51.208;6.418;2022-08-19T04:04:43;33.85;;;28.90;;
36291;SDS011;22327;51.208;6.418;2022-08-19T04:07:10;32.75;;;28.30;;
36291;SDS011;22327;51.208;6.418;2022-08-19T04:09:40;28.30;;;25.15;;
36291;SDS011;22327;51.208;6.418;2022-08-19T04:12:06;32.35;;;26.77;;
36291;SDS011;22327;51.208;6.418;2022-08-19T04:14:33;31.50;;;26.33;;
36291;SDS011;22327;51.208;6.418;2022-08-19T04:17:00;33.92;;;28.40;;
36291;SDS011;22327;51.208;6.418;2022-08-19T04:19:29;31.17;;;27.70;;
36291;SDS011;22327;51.208;6.418;2022-08-19T04:21:56;34.35;;;29.17;;
36291;SDS011;22327;51.208;6.418;2022-08-19T04:24:22;35.30;;;27.05;;
36291;SDS011;22327;51.208;6.418;2022-08-19T04:26:48;31.23;;;26.65;;
36291;SDS011;22327;51.208;6.418;2022-08-19T04:29:15;32.58;;;26.52;;
36291;SDS011;22327;51.208;6.418;2022-08-19T04:31:44;31.67;;;26.73;;
36291;SDS011;22327;51.208;6.418;2022-08-19T04:34:11;30.30;;;26.90;;
36291;SDS011;22327;51.208;6.418;2022-08-19T04:36:40;32.53;;;28.25;;
36291;SDS011;22327;51.208;6.418;2022-08-19T04:39:10;28.92;;;25.80;;
36291;SDS011;22327;51.208;6.418;2022-08-19T04:41:38;31.13;;;26.95;;
36291;SDS011;22327;51.208;6.418;2022-08-19T04:44:22;29.60;;;26.20;;
36291;SDS011;22327;51.208;6.418;2022-08-19T04:46:49;30.25;;;26.48;;
36291;SDS011;22327;51.208;6.418;2022-08-19T04:49:16;30.77;;;26.13;;
36291;SDS011;22327;51.208;6.418;2022-08-19T04:51:47;35.28;;;26.98;;
36291;SDS011;22327;51.208;6.418;2022-08-19T04:54:14;31.92;;;25.98;;
36291;SDS011;22327;51.208;6.418;2022-08-19T04:56:41;32.42;;;27.85;;
36291;SDS011;22327;51.208;6.418;2022-08-19T04:59:07;33.58;;;26.33;;
36291;SDS011;22327;51.208;6.418;2022-08-19T05:01:33;31.98;;;26.40;;
36291;SDS011;22327;51.208;6.418;2022-08-19T05:04:01;31.52;;;25.98;;
36291;SDS011;22327;51.208;6.418;2022-08-19T05:06:29;28.98;;;25.00;;
36291;SDS011;22327;51.208;6.418;2022-08-19T05:08:57;29.95;;;24.67;;
36291;SDS011;22327;51.208;6.418;2022-08-19T05:11:25;28.02;;;22.85;;
36291;SDS011;22327;51.208;6.418;2022-08-19T05:13:52;28.40;;;23.02;;
36291;SDS011;22327;51.208;6.418;2022-08-19T05:16:20;26.40;;;23.60;;
36291;SDS011;22327;51.208;6.418;2022-08-19T05:18:46;26.02;;;22.15;;
36291;SDS011;22327;51.208;6.418;2022-08-19T05:21:32;24.95;;;21.25;;
36291;SDS011;22327;51.208;6.418;2022-08-19T05:24:19;25.00;;;22.17;;
36291;SDS011;22327;51.208;6.418;2022-08-19T05:26:46;25.50;;;20.92;;
36291;SDS011;22327;51.208;6.418;2022-08-19T05:29:14;22.75;;;20.33;;
36291;SDS011;22327;51.208;6.418;2022-08-19T05:31:41;21.42;;;19.17;;
36291;SDS011;22327;51.208;6.418;2022-08-19T05:34:08;23.02;;;19.25;;
36291;SDS011;22327;51.208;6.418;2022-08-19T05:36:41;21.50;;;19.30;;
36291;SDS011;22327;51.208;6.418;2022-08-19T05:39:09;22.35;;;19.98;;
36291;SDS011;22327;51.208;6.418;2022-08-19T05:41:41;21.65;;;19.30;;
36291;SDS011;22327;51.208;6.418;2022-08-19T05:44:11;21.75;;;19.48;;
36291;SDS011;22327;51.208;6.418;2022-08-19T05:46:37;20.75;;;18.23;;
36291;SDS011;22327;51.208;6.418;2022-08-19T05:49:04;21.98;;;18.95;;
36291;SDS011;22327;51.208;6.418;2022-08-19T05:51:31;22.58;;;20.23;;
36291;SDS011;22327;51.208;6.418;2022-08-19T05:53:59;20.45;;;18.27;;
36291;SDS011;22327;51.208;6.418;2022-08-19T05:56:25;22.08;;;19.70;;
36291;SDS011;22327;51.208;6.418;2022-08-19T05:58:51;20.33;;;18.13;;
36291;SDS011;22327;51.208;6.418;2022-08-19T06:01:18;21.58;;;19.33;;
36291;SDS011;22327;51.208;6.418;2022-08-19T06:03:44;20.65;;;18.63;;
36291;SDS011;22327;51.208;6.418;2022-08-19T06:06:11;20.50;;;18.50;;
36291;SDS011;22327;51.208;6.418;2022-08-19T06:08:40;23.40;;;20.73;;
36291;SDS011;22327;51.208;6.418;2022-08-19T06:11:14;21.38;;;19.10;;
36291;SDS011;22327;51.208;6.418;2022-08-19T06:13:44;23.90;;;20.42;;
36291;SDS011;22327;51.208;6.418;2022-08-19T06:16:14;27.60;;;22.35;;
36291;SDS011;22327;51.208;6.418;2022-08-19T06:18:45;24.00;;;21.55;;
36291;SDS011;22327;51.208;6.418;2022-08-19T06:21:11;25.05;;;22.35;;
36291;SDS011;22327;51.208;6.418;2022-08-19T06:23:37;24.10;;;21.60;;
36291;SDS011;22327;51.208;6.418;2022-08-19T06:26:03;24.45;;;21.67;;
36291;SDS011;22327;51.208;6.418;2022-08-19T06:28:29;25.00;;;21.63;;
36291;SDS011;22327;51.208;6.418;2022-08-19T06:30:54;26.10;;;23.30;;
36291;SDS011;22327;51.208;6.418;2022-08-19T06:33:20;25.38;;;22.00;;
36291;SDS011;22327;51.208;6.418;2022-08-19T06:35:46;27.38;;;23.55;;
36291;SDS011;22327;51.208;6.418;2022-08-19T06:38:11;27.70;;;22.58;;
36291;SDS011;22327;51.208;6.418;2022-08-19T06:40:37;29.33;;;26.27;;
36291;SDS011;22327;51.208;6.418;2022-08-19T06:43:03;27.52;;;24.25;;
36291;SDS011;22327;51.208;6.418;2022-08-19T06:45:29;29.55;;;25.40;;
36291;SDS011;22327;51.208;6.418;2022-08-19T06:47:55;28.98;;;25.17;;
36291;SDS011;22327;51.208;6.418;2022-08-19T06:50:21;29.50;;;26.27;;
36291;SDS011;22327;51.208;6.418;2022-08-19T06:52:48;34.47;;;26.88;;
36291;SDS011;22327;51.208;6.418;2022-08-19T06:55:14;31.67;;;26.92;;
36291;SDS011;22327;51.208;6.418;2022-08-19T06:57:40;32.30;;;26.33;;
36291;SDS011;22327;51.208;6.418;2022-08-19T07:00:07;33.80;;;27.75;;
36291;SDS011;22327;51.208;6.418;2022-08-19T07:02:38;33.38;;;26.98;;
36291;SDS011;22327;51.208;6.418;2022-08-19T07:05:03;33.80;;;28.33;;
36291;SDS011;22327;51.208;6.418;2022-08-19T07:07:30;34.90;;;29.00;;
36291;SDS011;22327;51.208;6.418;2022-08-19T07:09:56;32.42;;;26.65;;
36291;SDS011;22327;51.208;6.418;2022-08-19T07:12:21;36.25;;;28.33;;
36291;SDS011;22327;51.208;6.418;2022-08-19T07:14:47;33.75;;;27.30;;
36291;SDS011;22327;51.208;6.418;2022-08-19T07:17:14;35.80;;;28.83;;
36291;SDS011;22327;51.208;6.418;2022-08-19T07:19:40;37.00;;;29.75;;
36291;SDS011;22327;51.208;6.418;2022-08-19T07:22:07;38.92;;;29.95;;
36291;SDS011;22327;51.208;6.418;2022-08-19T07:24:34;37.40;;;28.92;;
36291;SDS011;22327;51.208;6.418;2022-08-19T07:27:01;36.33;;;28.80;;
36291;SDS011;22327;51.208;6.418;2022-08-19T07:29:29;37.15;;;29.02;;
36291;SDS011;22327;51.208;6.418;2022-08-19T07:31:58;35.50;;;28.38;;
36291;SDS011;22327;51.208;6.418;2022-08-19T07:34:26;35.63;;;28.52;;
36291;SDS011;22327;51.208;6.418;2022-08-19T07:36:53;33.42;;;26.48;;
36291;SDS011;22327;51.208;6.418;2022-08-19T07:39:21;31.00;;;25.77;;
36291;SDS011;22327;51.208;6.418;2022-08-19T07:41:49;28.63;;;23.63;;
36291;SDS011;22327;51.208;6.418;2022-08-19T07:44:16;27.45;;;22.67;;
36291;SDS011;22327;51.208;6.418;2022-08-19T07:46:44;26.75;;;22.75;;
36291;SDS011;22327;51.208;6.418;2022-08-19T07:49:11;26.75;;;21.73;;
36291;SDS011;22327;51.208;6.418;2022-08-19T07:51:42;26.75;;;21.85;;
36291;SDS011;22327;51.208;6.418;2022-08-19T07:54:08;27.35;;;22.42;;
36291;SDS011;22327;51.208;6.418;2022-08-19T07:56:34;25.98;;;22.23;;
36291;SDS011;22327;51.208;6.418;2022-08-19T07:59:00;24.70;;;21.67;;
36291;SDS011;22327;51.208;6.418;2022-08-19T08:01:26;23.90;;;21.35;;
36291;SDS011;22327;51.208;6.418;2022-08-19T08:03:53;23.90;;;20.55;;
36291;SDS011;22327;51.208;6.418;2022-08-19T08:06:38;24.65;;;20.17;;
36291;SDS011;22327;51.208;6.418;2022-08-19T08:09:24;21.05;;;18.83;;
36291;SDS011;22327;51.208;6.418;2022-08-19T08:12:03;23.17;;;20.00;;
36291;SDS011;22327;51.208;6.418;2022-08-19T08:14:47;21.50;;;19.20;;
36291;SDS011;22327;51.208;6.418;2022-08-19T08:17:15;24.53;;;19.47;;
36291;SDS011;22327;51.208;6.418;2022-08-19T08:19:43;23.15;;;18.88;;
36291;SDS011;22327;51.208;6.418;2022-08-19T08:22:10;25.23;;;18.33;;
36291;SDS011;22327;51.208;6.418;2022-08-19T08:25:06;23.33;;;18.02;;
36291;SDS011;22327;51.208;6.418;2022-08-19T08:27:37;22.75;;;19.27;;
36291;SDS011;22327;51.208;6.418;2022-08-19T08:30:08;20.90;;;18.23;;
36291;SDS011;22327;51.208;6.418;2022-08-19T08:32:36;22.13;;;19.45;;
36291;SDS011;22327;51.208;6.418;2022-08-19T08:35:07;20.08;;;16.85;;
36291;SDS011;22327;51.208;6.418;2022-08-19T08:37:35;20.17;;;18.10;;
36291;SDS011;22327;51.208;6.418;2022-08-19T08:40:03;17.65;;;15.60;;
36291;SDS011;22327;51.208;6.418;2022-08-19T08:42:36;17.00;;;15.20;;
36291;SDS011;22327;51.208;6.418;2022-08-19T08:45:10;20.42;;;14.82;;
36291;SDS011;22327;51.208;6.418;2022-08-19T08:47:41;16.33;;;14.60;;
36291;SDS011;22327;51.208;6.418;2022-08-19T08:52:41;16.58;;;14.45;;
36291;SDS011;22327;51.208;6.418;2022-08-19T08:55:14;15.10;;;11.98;;
36291;SDS011;22327;51.208;6.418;2022-08-19T09:00:15;12.40;;;11.10;;
36291;SDS011;22327;51.208;6.418;2022-08-19T09:02:47;11.98;;;10.55;;
36291;SDS011;22327;51.208;6.418;2022-08-19T09:05:12;14.35;;;10.95;;
36291;SDS011;22327;51.208;6.418;2022-08-19T09:10:33;11.70;;;10.50;;
36291;SDS011;22327;51.208;6.418;2022-08-19T09:15:37;22.17;;;18.15;;
36291;SDS011;22327;51.208;6.418;2022-08-19T09:18:07;15.18;;;12.85;;
36291;SDS011;22327;51.208;6.418;2022-08-19T09:20:33;13.27;;;11.57;;
36291;SDS011;22327;51.208;6.418;2022-08-19T09:22:59;13.40;;;10.65;;
36291;SDS011;22327;51.208;6.418;2022-08-19T09:25:25;9.85;;;8.85;;
36291;SDS011;22327;51.208;6.418;2022-08-19T09:27:51;10.98;;;8.82;;
36291;SDS011;22327;51.208;6.418;2022-08-19T09:30:26;7.68;;;6.70;;
36291;SDS011;22327;51.208;6.418;2022-08-19T09:32:53;7.20;;;5.88;;
36291;SDS011;22327;51.208;6.418;2022-08-19T09:35:20;7.68;;;6.55;;
36291;SDS011;22327;51.208;6.418;2022-08-19T09:37:48;9.02;;;6.20;;
36291;SDS011;22327;51.208;6.418;2022-08-19T09:40:15;6.18;;;5.57;;
36291;SDS011;22327;51.208;6.418;2022-08-19T09:42:42;9.13;;;6.63;;
36291;SDS011;22327;51.208;6.418;2022-08-19T09:45:11;8.35;;;6.13;;
36291;SDS011;22327;51.208;6.418;2022-08-19T09:47:36;9.70;;;7.38;;
36291;SDS011;22327;51.208;6.418;2022-08-19T09:50:04;9.52;;;7.30;;
36291;SDS011;22327;51.208;6.418;2022-08-19T09:52:31;10.07;;;9.02;;
36291;SDS011;22327;51.208;6.418;2022-08-19T09:54:58;8.73;;;7.72;;
36291;SDS011;22327;51.208;6.418;2022-08-19T09:57:24;9.82;;;8.88;;
36291;SDS011;22327;51.208;6.418;2022-08-19T09:59:49;10.13;;;8.25;;
36291;SDS011;22327;51.208;6.418;2022-08-19T10:02:15;9.40;;;8.50;;
36291;SDS011;22327;51.208;6.418;2022-08-19T10:04:40;10.10;;;9.00;;
36291;SDS011;22327;51.208;6.418;2022-08-19T10:07:24;11.45;;;9.23;;
36291;SDS011;22327;51.208;6.418;2022-08-19T10:09:50;12.02;;;9.77;;
36291;SDS011;22327;51.208;6.418;2022-08-19T10:12:15;9.65;;;8.20;;
36291;SDS011;22327;51.208;6.418;2022-08-19T10:14:41;9.77;;;8.77;;
36291;SDS011;22327;51.208;6.418;2022-08-19T10:17:07;10.23;;;9.10;;
36291;SDS011;22327;51.208;6.418;2022-08-19T10:19:33;12.98;;;10.65;;
36291;SDS011;22327;51.208;6.418;2022-08-19T10:22:07;11.35;;;9.63;;
36291;SDS011;22327;51.208;6.418;2022-08-19T10:24:33;12.27;;;10.70;;
36291;SDS011;22327;51.208;6.418;2022-08-19T10:27:00;12.02;;;9.65;;
36291;SDS011;22327;51.208;6.418;2022-08-19T10:29:28;13.18;;;11.38;;
36291;SDS011;22327;51.208;6.418;2022-08-19T10:31:54;12.95;;;10.50;;
36291;SDS011;22327;51.208;6.418;2022-08-19T10:34:20;12.25;;;10.45;;
36291;SDS011;22327;51.208;6.418;2022-08-19T10:36:46;12.73;;;10.52;;
36291;SDS011;22327;51.208;6.418;2022-08-19T10:39:12;13.18;;;10.63;;
36291;SDS011;22327;51.208;6.418;2022-08-19T10:41:38;13.15;;;11.23;;
36291;SDS011;22327;51.208;6.418;2022-08-19T10:44:06;15.10;;;11.18;;
36291;SDS011;22327;51.208;6.418;2022-08-19T10:46:35;12.82;;;9.93;;
36291;SDS011;22327;51.208;6.418;2022-08-19T10:49:04;15.20;;;10.30;;
36291;SDS011;22327;51.208;6.418;2022-08-19T10:51:31;11.98;;;9.23;;
36291;SDS011;22327;51.208;6.418;2022-08-19T10:54:16;10.15;;;9.13;;
36291;SDS011;22327;51.208;6.418;2022-08-19T10:56:42;13.95;;;9.23;;
36291;SDS011;22327;51.208;6.418;2022-08-19T10:59:21;13.75;;;9.10;;
36291;SDS011;22327;51.208;6.418;2022-08-19T11:01:49;9.67;;;8.67;;
36291;SDS011;22327;51.208;6.418;2022-08-19T11:04:15;11.60;;;9.20;;
36291;SDS011;22327;51.208;6.418;2022-08-19T11:06:46;10.38;;;7.28;;
36291;SDS011;22327;51.208;6.418;2022-08-19T11:09:14;8.60;;;7.80;;
36291;SDS011;22327;51.208;6.418;2022-08-19T11:11:42;9.35;;;8.30;;
36291;SDS011;22327;51.208;6.418;2022-08-19T11:14:12;11.75;;;8.95;;
36291;SDS011;22327;51.208;6.418;2022-08-19T11:16:40;9.80;;;8.10;;
36291;SDS011;22327;51.208;6.418;2022-08-19T11:19:07;9.70;;;7.55;;
36291;SDS011;22327;51.208;6.418;2022-08-19T11:21:41;7.60;;;6.85;;
36291;SDS011;22327;51.208;6.418;2022-08-19T11:24:19;9.05;;;7.10;;
36291;SDS011;22327;51.208;6.418;2022-08-19T11:26:46;10.02;;;6.07;;
36291;SDS011;22327;51.208;6.418;2022-08-19T11:29:14;10.35;;;6.15;;
36291;SDS011;22327;51.208;6.418;2022-08-19T11:31:42;7.90;;;6.35;;
36291;SDS011;22327;51.208;6.418;2022-08-19T11:34:11;7.60;;;6.15;;
36291;SDS011;22327;51.208;6.418;2022-08-19T11:36:39;7.28;;;6.43;;
36291;SDS011;22327;51.208;6.418;2022-08-19T11:39:08;8.50;;;6.57;;
36291;SDS011;22327;51.208;6.418;2022-08-19T11:41:35;6.75;;;6.15;;
36291;SDS011;22327;51.208;6.418;2022-08-19T11:44:01;9.43;;;7.35;;
36291;SDS011;22327;51.208;6.418;2022-08-19T11:46:28;8.55;;;6.70;;
36291;SDS011;22327;51.208;6.418;2022-08-19T11:48:54;7.82;;;6.65;;
36291;SDS011;22327;51.208;6.418;2022-08-19T11:51:25;6.22;;;5.63;;
36291;SDS011;22327;51.208;6.418;2022-08-19T11:53:52;5.90;;;5.30;;
36291;SDS011;22327;51.208;6.418;2022-08-19T11:56:19;5.20;;;4.68;;
36291;SDS011;22327;51.208;6.418;2022-08-19T11:58:46;6.95;;;5.57;;
36291;SDS011;22327;51.208;6.418;2022-08-19T12:01:13;6.43;;;5.28;;
36291;SDS011;22327;51.208;6.418;2022-08-19T12:03:44;4.85;;;4.38;;
36291;SDS011;22327;51.208;6.418;2022-08-19T12:06:12;6.10;;;5.50;;
36291;SDS011;22327;51.208;6.418;2022-08-19T12:08:40;6.22;;;5.30;;
36291;SDS011;22327;51.208;6.418;2022-08-19T12:11:08;7.30;;;5.15;;
36291;SDS011;22327;51.208;6.418;2022-08-19T12:13:35;6.40;;;5.32;;
36291;SDS011;22327;51.208;6.418;2022-08-19T12:16:07;7.13;;;5.65;;
36291;SDS011;22327;51.208;6.418;2022-08-19T12:18:36;7.25;;;5.35;;
36291;SDS011;22327;51.208;6.418;2022-08-19T12:21:02;6.32;;;5.05;;
36291;SDS011;22327;51.208;6.418;2022-08-19T12:23:28;5.78;;;4.60;;
36291;SDS011;22327;51.208;6.418;2022-08-19T12:25:54;4.07;;;3.67;;
36291;SDS011;22327;51.208;6.418;2022-08-19T12:28:22;5.38;;;3.67;;
36291;SDS011;22327;51.208;6.418;2022-08-19T12:30:49;6.47;;;4.72;;
36291;SDS011;22327;51.208;6.418;2022-08-19T12:33:16;5.15;;;4.40;;
36291;SDS011;22327;51.208;6.418;2022-08-19T12:35:43;5.00;;;4.47;;
36291;SDS011;22327;51.208;6.418;2022-08-19T12:38:11;4.55;;;4.15;;
36291;SDS011;22327;51.208;6.418;2022-08-19T12:40:38;7.68;;;4.63;;
36291;SDS011;22327;51.208;6.418;2022-08-19T12:43:05;5.95;;;3.88;;
36291;SDS011;22327;51.208;6.418;2022-08-19T12:45:31;6.20;;;4.13;;
36291;SDS011;22327;51.208;6.418;2022-08-19T12:47:56;3.90;;;3.33;;
36291;SDS011;22327;51.208;6.418;2022-08-19T12:50:23;5.05;;;3.40;;
36291;SDS011;22327;51.208;6.418;2022-08-19T12:52:48;6.55;;;4.03;;
36291;SDS011;22327;51.208;6.418;2022-08-19T12:55:14;4.10;;;3.70;;
36291;SDS011;22327;51.208;6.418;2022-08-19T12:57:40;3.95;;;3.40;;
36291;SDS011;22327;51.208;6.418;2022-08-19T13:00:07;6.38;;;3.25;;
36291;SDS011;22327;51.208;6.418;2022-08-19T13:02:43;4.75;;;3.67;;
36291;SDS011;22327;51.208;6.418;2022-08-19T13:05:13;3.63;;;3.20;;
36291;SDS011;22327;51.208;6.418;2022-08-19T13:07:41;4.38;;;3.10;;
36291;SDS011;22327;51.208;6.418;2022-08-19T13:10:09;7.57;;;3.30;;
36291;SDS011;22327;51.208;6.418;2022-08-19T13:12:37;5.80;;;3.03;;
36291;SDS011;22327;51.208;6.418;2022-08-19T13:15:03;4.50;;;3.00;;
36291;SDS011;22327;51.208;6.418;2022-08-19T13:17:30;4.20;;;3.33;;
36291;SDS011;22327;51.208;6.418;2022-08-19T13:19:55;6.30;;;3.42;;
36291;SDS011;22327;51.208;6.418;2022-08-19T13:22:21;4.55;;;3.03;;
36291;SDS011;22327;51.208;6.418;2022-08-19T13:24:47;3.75;;;2.35;;
36291;SDS011;22327;51.208;6.418;2022-08-19T13:27:13;4.65;;;2.80;;
36291;SDS011;22327;51.208;6.418;2022-08-19T13:29:40;5.60;;;2.70;;
36291;SDS011;22327;51.208;6.418;2022-08-19T13:32:24;4.20;;;2.60;;
36291;SDS011;22327;51.208;6.418;2022-08-19T13:35:08;3.92;;;2.85;;
36291;SDS011;22327;51.208;6.418;2022-08-19T13:37:34;5.10;;;3.10;;
36291;SDS011;22327;51.208;6.418;2022-08-19T13:40:07;5.38;;;3.00;;
36291;SDS011;22327;51.208;6.418;2022-08-19T13:42:39;3.08;;;2.65;;
36291;SDS011;22327;51.208;6.418;2022-08-19T13:45:05;5.60;;;3.25;;
36291;SDS011;22327;51.208;6.418;2022-08-19T13:47:32;4.55;;;3.30;;
36291;SDS011;22327;51.208;6.418;2022-08-19T13:50:02;4.70;;;2.72;;
36291;SDS011;22327;51.208;6.418;2022-08-19T13:52:28;4.15;;;3.45;;
36291;SDS011;22327;51.208;6.418;2022-08-19T13:54:54;3.65;;;3.33;;
36291;SDS011;22327;51.208;6.418;2022-08-19T13:57:19;3.75;;;2.60;;
36291;SDS011;22327;51.208;6.418;2022-08-19T13:59:45;3.22;;;2.50;;
36291;SDS011;22327;51.208;6.418;2022-08-19T14:02:11;6.07;;;2.28;;
36291;SDS011;22327;51.208;6.418;2022-08-19T14:04:36;2.70;;;2.45;;
36291;SDS011;22327;51.208;6.418;2022-08-19T14:07:02;3.10;;;2.90;;
36291;SDS011;22327;51.208;6.418;2022-08-19T14:09:28;3.63;;;2.70;;
36291;SDS011;22327;51.208;6.418;2022-08-19T14:11:54;7.82;;;3.10;;
36291;SDS011;22327;51.208;6.418;2022-08-19T14:14:22;3.08;;;2.75;;
36291;SDS011;22327;51.208;6.418;2022-08-19T14:16:47;4.20;;;2.85;;
36291;SDS011;22327;51.208;6.418;2022-08-19T14:19:16;4.68;;;2.72;;
36291;SDS011;22327;51.208;6.418;2022-08-19T14:21:42;3.55;;;2.47;;
36291;SDS011;22327;51.208;6.418;2022-08-19T14:24:08;3.50;;;3.15;;
36291;SDS011;22327;51.208;6.418;2022-08-19T14:26:34;5.75;;;3.10;;
36291;SDS011;22327;51.208;6.418;2022-08-19T14:28:59;4.40;;;3.20;;
36291;SDS011;22327;51.208;6.418;2022-08-19T14:31:26;2.80;;;2.60;;
36291;SDS011;22327;51.208;6.418;2022-08-19T14:33:52;3.55;;;3.00;;
36291;SDS011;22327;51.208;6.418;2022-08-19T14:36:18;3.67;;;3.20;;
36291;SDS011;22327;51.208;6.418;2022-08-19T14:38:46;6.40;;;3.55;;
36291;SDS011;22327;51.208;6.418;2022-08-19T14:41:14;4.07;;;3.72;;
36291;SDS011;22327;51.208;6.418;2022-08-19T14:43:45;5.50;;;3.90;;
36291;SDS011;22327;51.208;6.418;2022-08-19T14:46:12;3.97;;;3.45;;
36291;SDS011;22327;51.208;6.418;2022-08-19T14:48:39;4.13;;;3.50;;
36291;SDS011;22327;51.208;6.418;2022-08-19T14:51:05;4.18;;;3.50;;
36291;SDS011;22327;51.208;6.418;2022-08-19T14:53:31;4.18;;;2.97;;